createdAt,value
2022-08-28T00:01:53.766Z,10.27
2022-08-28T00:04:57.020Z,10.77
2022-08-28T00:08:00.949Z,10.30
2022-08-28T00:11:05.213Z,10.43
2022-08-28T00:14:11.319Z,10.00
2022-08-28T00:17:14.660Z,8.77
2022-08-28T00:20:19.911Z,9.60
2022-08-28T00:23:24.113Z,9.17
2022-08-28T00:26:46.893Z,9.83
2022-08-28T00:29:51.013Z,9.20
2022-08-28T00:32:56.676Z,10.07
2022-08-28T00:36:00.918Z,11.07
2022-08-28T00:39:05.072Z,10.43
2022-08-28T00:42:10.202Z,11.70
2022-08-28T00:45:15.349Z,12.87
2022-08-28T00:48:18.125Z,14.87
2022-08-28T00:51:39.834Z,14.73
2022-08-28T00:54:59.187Z,15.90
2022-08-28T00:58:03.365Z,15.23
2022-08-28T01:01:07.950Z,14.53
2022-08-28T01:04:16.483Z,14.97
2022-08-28T01:07:19.708Z,15.07
2022-08-28T01:10:26.300Z,16.33
2022-08-28T01:13:30.225Z,16.20
2022-08-28T01:16:34.755Z,16.30
2022-08-28T01:19:40.373Z,14.47
2022-08-28T01:22:51.856Z,15.80
2022-08-28T01:25:56.155Z,14.47
2022-08-28T01:29:00.863Z,14.27
2022-08-28T01:32:05.203Z,12.77
2022-08-28T01:35:19.131Z,14.13
2022-08-28T01:38:26.756Z,13.77
2022-08-28T01:41:31.277Z,13.53
2022-08-28T01:44:34.310Z,14.23
2022-08-28T01:47:37.007Z,13.40
2022-08-28T01:50:41.087Z,14.40
2022-08-28T01:53:45.345Z,14.30
2022-08-28T01:56:51.012Z,13.07
2022-08-28T01:59:54.820Z,13.80
2022-08-28T02:03:00.869Z,13.70
2022-08-28T02:06:03.941Z,13.10
2022-08-28T02:09:07.337Z,14.43
2022-08-28T02:12:18.695Z,13.33
2022-08-28T02:15:23.540Z,14.77
2022-08-28T02:18:26.356Z,14.77
2022-08-28T02:21:29.550Z,13.83
2022-08-28T02:24:32.243Z,14.07
2022-08-28T02:27:36.870Z,13.47
2022-08-28T02:30:40.119Z,14.20
2022-08-28T02:33:45.007Z,17.70
2022-08-28T02:36:48.108Z,18.00
2022-08-28T02:39:51.577Z,18.17
2022-08-28T02:42:55.697Z,22.87
2022-08-28T02:45:58.824Z,19.33
2022-08-28T02:49:01.633Z,16.90
2022-08-28T02:52:07.087Z,14.10
2022-08-28T02:55:12.450Z,12.67
2022-08-28T02:58:16.494Z,11.93
2022-08-28T03:01:19.612Z,12.20
2022-08-28T03:04:22.718Z,12.50
2022-08-28T03:07:25.386Z,10.30
2022-08-28T03:10:28.427Z,9.83
2022-08-28T03:13:32.586Z,9.50
2022-08-28T03:16:35.569Z,10.47
2022-08-28T03:19:38.678Z,10.40
2022-08-28T03:22:59.718Z,9.63
2022-08-28T03:26:06.211Z,10.97
2022-08-28T03:29:10.573Z,11.40
2022-08-28T03:32:13.552Z,12.70
2022-08-28T03:35:16.635Z,13.33
2022-08-28T03:38:20.362Z,17.63
2022-08-28T03:41:25.402Z,31.23
2022-08-28T03:44:29.442Z,35.17
2022-08-28T03:47:32.475Z,22.80
2022-08-28T03:50:36.511Z,26.67
2022-08-28T03:53:39.867Z,31.47
2022-08-28T03:56:43.433Z,28.67
2022-08-28T03:59:48.025Z,32.70
2022-08-28T04:02:51.309Z,28.47
2022-08-28T04:05:54.303Z,24.90
2022-08-28T04:09:00.329Z,35.57
2022-08-28T04:12:03.938Z,30.03
2022-08-28T04:15:09.779Z,41.07
2022-08-28T04:18:13.725Z,40.40
2022-08-28T04:21:19.238Z,31.63
2022-08-28T04:24:22.342Z,29.30
2022-08-28T04:27:25.050Z,26.90
2022-08-28T04:30:29.140Z,26.70
2022-08-28T04:33:33.132Z,26.77
2022-08-28T04:36:36.870Z,29.47
2022-08-28T04:39:39.580Z,28.67
2022-08-28T04:42:43.071Z,26.10
2022-08-28T04:45:47.287Z,24.23
2022-08-28T04:48:50.095Z,20.70
2022-08-28T04:51:52.874Z,21.13
2022-08-28T04:54:55.814Z,19.00
2022-08-28T04:57:58.791Z,18.33
2022-08-28T05:01:07.086Z,17.73
2022-08-28T05:04:11.339Z,18.53
2022-08-28T05:07:14.022Z,20.20
2022-08-28T05:10:16.907Z,19.63
2022-08-28T05:13:20.771Z,18.37
2022-08-28T05:16:24.956Z,17.03
2022-08-28T05:19:29.265Z,16.10
2022-08-28T05:22:32.536Z,15.30
2022-08-28T05:25:37.579Z,16.30
2022-08-28T05:28:40.979Z,15.73
2022-08-28T05:31:46.342Z,16.53
2022-08-28T05:34:49.351Z,15.47
2022-08-28T05:37:53.465Z,18.37
2022-08-28T05:40:56.208Z,18.87
2022-08-28T05:44:00.172Z,20.13
2022-08-28T05:47:04.718Z,18.07
2022-08-28T05:50:08.937Z,15.97
2022-08-28T05:53:11.635Z,16.53
2022-08-28T05:56:16.960Z,15.27
2022-08-28T05:59:19.889Z,14.27
2022-08-28T06:02:24.049Z,13.47
2022-08-28T06:05:27.123Z,13.40
2022-08-28T06:08:31.359Z,13.03
2022-08-28T06:11:34.748Z,12.10
2022-08-28T06:14:37.723Z,11.37
2022-08-28T06:17:41.947Z,9.57
2022-08-28T06:20:46.731Z,9.00
2022-08-28T06:23:49.871Z,9.03
2022-08-28T06:26:53.030Z,9.50
2022-08-28T06:29:59.899Z,9.20
2022-08-28T06:33:04.631Z,8.23
2022-08-28T06:36:08.262Z,8.20
2022-08-28T06:39:13.677Z,7.63
2022-08-28T06:42:16.418Z,7.20
2022-08-28T06:45:20.249Z,6.67
2022-08-28T06:48:27.448Z,6.97
2022-08-28T06:51:30.239Z,8.00
2022-08-28T06:54:33.000Z,8.07
2022-08-28T06:57:36.353Z,7.47
2022-08-28T07:00:40.380Z,7.20
2022-08-28T07:03:45.800Z,7.20
2022-08-28T07:06:54.196Z,7.20
2022-08-28T07:09:57.863Z,7.00
2022-08-28T07:13:00.873Z,7.13
2022-08-28T07:16:04.118Z,7.97
2022-08-28T07:19:11.200Z,7.00
2022-08-28T07:22:14.179Z,6.73
2022-08-28T07:25:17.660Z,6.07
2022-08-28T07:28:22.021Z,5.93
2022-08-28T07:31:27.983Z,5.57
2022-08-28T07:34:32.343Z,5.17
2022-08-28T07:37:35.090Z,5.17
2022-08-28T07:40:38.021Z,5.13
2022-08-28T07:43:58.270Z,5.20
2022-08-28T07:47:03.989Z,5.43
2022-08-28T07:50:08.760Z,5.00
2022-08-28T07:53:11.480Z,5.20
2022-08-28T07:56:14.455Z,4.97
2022-08-28T07:59:19.326Z,4.80
2022-08-28T08:02:22.299Z,4.83
2022-08-28T08:05:26.457Z,5.57
2022-08-28T08:08:29.883Z,4.77
2022-08-28T08:11:33.559Z,6.00
2022-08-28T08:14:36.807Z,5.90
2022-08-28T08:17:40.167Z,6.20
2022-08-28T08:20:44.217Z,5.03
2022-08-28T08:23:48.236Z,5.43
2022-08-28T08:27:00.311Z,5.63
2022-08-28T08:30:03.636Z,5.60
2022-08-28T08:33:06.537Z,5.20
2022-08-28T08:36:12.371Z,5.30
2022-08-28T08:39:36.985Z,5.37
2022-08-28T08:42:40.180Z,5.00
2022-08-28T08:45:46.062Z,5.53
2022-08-28T08:48:49.042Z,4.70
2022-08-28T08:52:00.407Z,4.43
2022-08-28T08:55:17.577Z,4.10
2022-08-28T08:58:26.695Z,4.37
2022-08-28T09:01:33.980Z,4.80
2022-08-28T09:04:46.412Z,4.10
2022-08-28T09:07:56.878Z,4.30
2022-08-28T09:11:08.087Z,4.53
2022-08-28T09:14:20.628Z,4.10
2022-08-28T09:17:34.493Z,4.10
2022-08-28T09:20:37.361Z,4.30
2022-08-28T09:23:41.560Z,4.37
2022-08-28T09:26:53.003Z,4.10
2022-08-28T09:29:59.356Z,3.87
2022-08-28T09:33:10.374Z,4.17
2022-08-28T09:36:30.182Z,4.07
2022-08-28T09:39:35.817Z,4.10
2022-08-28T09:42:56.229Z,4.40
2022-08-28T09:46:02.726Z,4.17
2022-08-28T09:49:12.017Z,3.80
2022-08-28T09:52:25.105Z,4.30
2022-08-28T09:55:36.209Z,3.90
2022-08-28T09:58:43.311Z,4.50
2022-08-28T10:01:58.974Z,4.03
2022-08-28T10:05:05.460Z,4.40
2022-08-28T10:08:23.382Z,4.47
2022-08-28T10:11:34.115Z,4.40
2022-08-28T10:14:47.700Z,4.30
2022-08-28T10:18:08.459Z,4.50
2022-08-28T10:21:18.113Z,4.30
2022-08-28T10:24:42.034Z,4.70
2022-08-28T10:28:00.520Z,4.20
2022-08-28T10:31:10.790Z,4.53
2022-08-28T10:34:31.095Z,4.07
2022-08-28T10:37:46.469Z,4.53
2022-08-28T10:40:56.750Z,4.10
2022-08-28T10:44:03.523Z,4.13
2022-08-28T10:47:10.061Z,4.37
2022-08-28T10:50:19.039Z,3.80
2022-08-28T10:53:27.938Z,4.20
2022-08-28T10:56:39.585Z,3.90
2022-08-28T10:59:49.149Z,4.00
2022-08-28T11:02:55.637Z,3.97
2022-08-28T11:06:06.163Z,4.27
2022-08-28T11:09:27.964Z,4.30
2022-08-28T11:12:39.031Z,4.20
2022-08-28T11:15:50.342Z,4.13
2022-08-28T11:19:17.359Z,4.07
2022-08-28T11:22:24.792Z,4.33
2022-08-28T11:25:34.049Z,3.80
2022-08-28T11:28:47.721Z,3.30
2022-08-28T11:32:36.485Z,3.70
2022-08-28T11:35:50.424Z,4.00
2022-08-28T11:39:20.979Z,3.30
2022-08-28T11:42:38.752Z,3.37
2022-08-28T11:46:12.984Z,3.40
2022-08-28T11:49:42.340Z,3.20
2022-08-28T11:53:07.351Z,3.60
2022-08-28T11:56:40.397Z,3.10
2022-08-28T12:00:07.206Z,3.33
2022-08-28T12:03:13.832Z,3.40
2022-08-28T12:06:59.177Z,4.53
2022-08-28T12:10:05.293Z,3.70
2022-08-28T12:13:10.062Z,3.40
2022-08-28T12:16:15.908Z,3.60
2022-08-28T12:19:28.791Z,2.17
2022-08-28T12:22:46.252Z,3.60
2022-08-28T12:25:59.706Z,2.87
2022-08-28T12:29:04.431Z,3.50
2022-08-28T12:32:30.217Z,3.27
2022-08-28T12:35:33.070Z,3.77
2022-08-28T12:38:36.309Z,3.63
2022-08-28T12:41:40.520Z,3.40
2022-08-28T12:44:43.485Z,3.20
2022-08-28T12:47:49.715Z,3.50
2022-08-28T12:51:03.220Z,3.47
2022-08-28T12:54:08.292Z,3.20
2022-08-28T12:57:20.642Z,3.20
2022-08-28T13:00:26.370Z,3.07
2022-08-28T13:03:29.645Z,3.07
2022-08-28T13:06:34.922Z,3.27
2022-08-28T13:09:38.249Z,3.33
2022-08-28T13:12:56.273Z,3.73
2022-08-28T13:16:02.526Z,2.93
2022-08-28T13:19:22.496Z,2.47
2022-08-28T13:22:39.663Z,3.10
2022-08-28T13:25:42.442Z,2.83
2022-08-28T13:28:46.542Z,3.27
2022-08-28T13:31:59.706Z,2.87
2022-08-28T13:35:29.254Z,2.73
2022-08-28T13:38:35.513Z,3.00
2022-08-28T13:41:38.692Z,2.80
2022-08-28T13:44:50.763Z,3.30
2022-08-28T13:47:53.725Z,3.10
2022-08-28T13:51:00.594Z,3.10
2022-08-28T13:54:05.866Z,2.63
2022-08-28T13:57:13.392Z,3.00
2022-08-28T14:00:18.486Z,2.60
2022-08-28T14:03:38.226Z,2.90
2022-08-28T14:06:44.330Z,2.43
2022-08-28T14:09:47.108Z,2.70
2022-08-28T14:12:50.036Z,2.70
2022-08-28T14:15:54.340Z,2.60
2022-08-28T14:18:57.243Z,2.70
2022-08-28T14:22:00.996Z,2.00
2022-08-28T14:25:05.526Z,2.50
2022-08-28T14:28:08.249Z,2.37
2022-08-28T14:31:14.591Z,2.40
2022-08-28T14:34:20.413Z,2.03
2022-08-28T14:37:23.574Z,2.10
2022-08-28T14:40:26.337Z,2.00
2022-08-28T14:43:29.605Z,1.90
2022-08-28T14:46:35.611Z,2.17
2022-08-28T14:49:39.391Z,2.50
2022-08-28T14:52:42.176Z,2.37
2022-08-28T14:55:47.111Z,2.47
2022-08-28T14:58:49.901Z,2.13
2022-08-28T15:01:58.167Z,2.30
2022-08-28T15:05:01.157Z,1.90
2022-08-28T15:08:07.461Z,2.30
2022-08-28T15:11:17.882Z,2.47
2022-08-28T15:14:22.081Z,2.40
2022-08-28T15:17:33.426Z,1.93
2022-08-28T15:20:39.527Z,2.30
2022-08-28T15:23:43.060Z,2.13
2022-08-28T15:26:46.883Z,2.10
2022-08-28T15:29:51.448Z,2.63
2022-08-28T15:34:01.404Z,2.03
2022-08-28T15:37:14.253Z,2.50
2022-08-28T15:40:35.827Z,2.07
2022-08-28T15:43:38.905Z,2.40
2022-08-28T15:47:12.546Z,2.30
2022-08-28T15:50:19.998Z,2.03
2022-08-28T15:53:36.562Z,1.27
2022-08-28T15:56:53.832Z,2.07
2022-08-28T15:59:56.954Z,2.20
2022-08-28T16:03:01.029Z,1.53
2022-08-28T16:06:07.563Z,2.10
2022-08-28T16:09:14.350Z,1.90
2022-08-28T16:12:23.115Z,1.93
2022-08-28T16:15:26.374Z,1.90
2022-08-28T16:18:29.163Z,1.77
2022-08-28T16:21:32.024Z,2.20
2022-08-28T16:24:39.083Z,2.20
2022-08-28T16:27:41.836Z,2.40
2022-08-28T16:30:44.593Z,2.43
2022-08-28T16:34:00.127Z,2.00
2022-08-28T16:37:03.045Z,2.10
2022-08-28T16:40:08.978Z,2.43
2022-08-28T16:43:12.609Z,2.20
2022-08-28T16:46:17.759Z,2.10
2022-08-28T16:49:21.053Z,1.90
2022-08-28T16:52:23.915Z,2.40
2022-08-28T16:55:29.187Z,3.03
2022-08-28T16:58:32.234Z,2.27
2022-08-28T17:01:35.148Z,2.40
2022-08-28T17:04:38.327Z,2.60
2022-08-28T17:07:41.070Z,2.10
2022-08-28T17:10:45.147Z,2.47
2022-08-28T17:13:48.592Z,2.20
2022-08-28T17:16:52.352Z,2.10
2022-08-28T17:19:55.554Z,2.53
2022-08-28T17:22:57.317Z,2.50
2022-08-28T17:26:01.773Z,2.40
2022-08-28T17:29:05.948Z,2.30
2022-08-28T17:32:09.052Z,2.10
2022-08-28T17:35:12.471Z,2.33
2022-08-28T17:38:15.673Z,2.97
2022-08-28T17:41:19.942Z,2.50
2022-08-28T17:44:23.306Z,2.37
2022-08-28T17:47:30.689Z,2.43
2022-08-28T17:50:35.785Z,2.27
2022-08-28T17:53:38.552Z,2.30
2022-08-28T17:56:43.760Z,2.20
2022-08-28T17:59:46.638Z,2.50
2022-08-28T18:02:51.774Z,2.80
2022-08-28T18:05:54.722Z,2.67
2022-08-28T18:08:57.416Z,2.63
2022-08-28T18:12:02.056Z,2.70
2022-08-28T18:15:05.960Z,2.73
2022-08-28T18:18:09.135Z,2.40
2022-08-28T18:21:12.164Z,2.40
2022-08-28T18:24:15.299Z,2.57
2022-08-28T18:27:20.280Z,2.90
2022-08-28T18:30:23.046Z,2.70
2022-08-28T18:33:26.298Z,2.60
2022-08-28T18:36:29.439Z,2.73
2022-08-28T18:39:32.226Z,2.83
2022-08-28T18:42:38.638Z,2.77
2022-08-28T18:45:41.901Z,2.70
2022-08-28T18:48:45.195Z,3.00
2022-08-28T18:51:48.159Z,3.23
2022-08-28T18:54:53.631Z,3.10
2022-08-28T18:58:03.493Z,3.30
2022-08-28T19:01:09.770Z,3.90
2022-08-28T19:04:12.628Z,3.70
2022-08-28T19:07:15.593Z,3.30
2022-08-28T19:10:32.469Z,3.27
2022-08-28T19:13:38.723Z,3.27
2022-08-28T19:16:41.559Z,3.10
2022-08-28T19:19:44.293Z,3.03
2022-08-28T19:22:50.726Z,2.83
2022-08-28T19:25:53.733Z,3.30
2022-08-28T19:28:59.148Z,3.30
2022-08-28T19:32:02.255Z,3.00
2022-08-28T19:35:05.719Z,3.37
2022-08-28T19:38:08.439Z,3.37
2022-08-28T19:41:13.171Z,3.07
2022-08-28T19:44:17.293Z,2.80
2022-08-28T19:47:22.253Z,3.60
2022-08-28T19:50:24.995Z,3.10
2022-08-28T19:53:27.747Z,3.37
2022-08-28T19:56:32.440Z,3.20
2022-08-28T19:59:36.568Z,3.30
2022-08-28T20:02:40.308Z,3.60
2022-08-28T20:05:44.239Z,3.40
2022-08-28T20:08:46.979Z,3.07
2022-08-28T20:11:52.614Z,3.47
2022-08-28T20:15:00.117Z,3.57
2022-08-28T20:18:08.082Z,3.30
2022-08-28T20:21:11.892Z,3.20
2022-08-28T20:24:17.644Z,3.30
2022-08-28T20:27:21.147Z,3.27
2022-08-28T20:30:25.256Z,3.57
2022-08-28T20:33:28.108Z,3.70
2022-08-28T20:36:31.549Z,3.73
2022-08-28T20:39:34.348Z,3.40
2022-08-28T20:42:37.277Z,3.50
2022-08-28T20:45:41.665Z,3.47
2022-08-28T20:48:45.099Z,3.30
2022-08-28T20:52:01.168Z,3.73
2022-08-28T20:55:05.047Z,3.20
2022-08-28T20:58:07.911Z,3.23
2022-08-28T21:01:14.160Z,3.60
2022-08-28T21:04:17.513Z,3.20
2022-08-28T21:07:22.282Z,3.53
2022-08-28T21:10:25.304Z,3.60
2022-08-28T21:13:28.114Z,3.67
2022-08-28T21:16:32.278Z,3.20
2022-08-28T21:19:40.178Z,3.33
2022-08-28T21:22:44.298Z,3.40
2022-08-28T21:25:48.365Z,3.20
2022-08-28T21:28:52.395Z,3.40
2022-08-28T21:31:56.531Z,3.73
2022-08-28T21:34:59.484Z,3.80
2022-08-28T21:38:02.469Z,3.50
2022-08-28T21:41:06.347Z,3.50
2022-08-28T21:44:09.788Z,3.67
2022-08-28T21:47:16.461Z,3.57
2022-08-28T21:50:19.546Z,3.40
2022-08-28T21:53:23.002Z,3.47
2022-08-28T21:56:29.142Z,3.73
2022-08-28T21:59:37.749Z,3.87
2022-08-28T22:02:42.220Z,3.87
2022-08-28T22:05:46.668Z,3.70
2022-08-28T22:08:50.336Z,3.80
2022-08-28T22:11:53.442Z,4.33
2022-08-28T22:14:56.143Z,3.60
2022-08-28T22:18:00.367Z,3.57
2022-08-28T22:21:20.850Z,3.40
2022-08-28T22:24:23.957Z,3.63
2022-08-28T22:27:27.176Z,3.33
2022-08-28T22:30:29.883Z,3.30
2022-08-28T22:33:36.638Z,3.30
2022-08-28T22:36:39.859Z,3.60
2022-08-28T22:39:43.423Z,3.50
2022-08-28T22:42:46.415Z,3.60
2022-08-28T22:45:49.338Z,3.63
2022-08-28T22:48:53.840Z,3.07
2022-08-28T22:51:56.627Z,3.63
2022-08-28T22:54:59.553Z,3.10
2022-08-28T22:58:02.851Z,3.63
2022-08-28T23:01:11.167Z,3.13
2022-08-28T23:04:17.278Z,3.37
2022-08-28T23:07:20.088Z,3.50
2022-08-28T23:10:42.120Z,3.30
2022-08-28T23:13:46.384Z,3.50
2022-08-28T23:16:49.335Z,3.17
2022-08-28T23:19:55.463Z,4.10
2022-08-28T23:22:58.429Z,3.77
2022-08-28T23:26:01.785Z,3.40
2022-08-28T23:29:05.140Z,3.43
2022-08-28T23:32:08.454Z,3.43
2022-08-28T23:35:17.221Z,3.63
2022-08-28T23:38:20.784Z,3.37
2022-08-28T23:41:23.966Z,3.70
2022-08-28T23:44:26.726Z,3.73
2022-08-28T23:47:29.800Z,3.30
2022-08-28T23:50:34.061Z,3.70
2022-08-28T23:53:37.504Z,4.00
2022-08-28T23:56:40.413Z,3.73
2022-08-28T23:59:44.057Z,3.70
